Scottish Airport Reports

Civil airfields updated at H+20 and H+50
RAF airfields updated at H+50 only

EGPD - Aberdeen
Distance from station: NNE 19mi, 31km
Updated: 18/10/2018 17:50
Clear
Clear
 Wind from SSW
Wind: SSW 8 mph , 13 km/h
Temperature: 9°C
Wind Chill: 7°C
Dew Point: 4°C
Humidity: 71%
Barometer: 1026 hPa
Clouds: Clear
Visibility: 6 miles , 10 km
2018/10/18 16:50 EGPD 181650Z AUTO 20007KT 9999 NCD 09/04 Q1026 NOSIG
EGPN - Dundee
Distance from station: SW 41mi, 66km
Updated: 18/10/2018 17:50
Few Clouds
Few Clouds
 Wind from varies
Wind: varies 3 mph , 6 km/h
Temperature: 10°C
Dew Point: 8°C
Humidity: 88%
Barometer: 1026 hPa
Clouds: Few Clouds
Visibility: 6 miles , 10 km
Cloud details: Few Clouds 4000 ft
2018/10/18 16:50 EGPN 181650Z VRB03KT 9999 FEW040 10/08 Q1026
 
EGQS - RAF Lossiemouth
Distance from station: NNW 63mi, 102km
Updated: 18/10/2018 17:50
Mostly cloudy
Mostly cloudy
 Wind from S
Wind: S 6 mph , 9 km/h
Temperature: 9°C
Wind Chill: 7°C
Dew Point: 5°C
Humidity: 76%
Barometer: 1024 hPa
Clouds: Mostly cloudy
Visibility: 6 miles , 10 km
Cloud details: Few Clouds 3600 ft
Mostly cloudy 21000 ft
2018/10/18 16:50 EGQS 181650Z 17005KT 9999 FEW036 BKN210 09/05 Q1024 BLU
EGPE - Inverness
Distance from station: WNW 73mi, 117km
Updated: 18/10/2018 17:50
Partly cloudy
Partly cloudy
 Wind from SW
Wind: SW 15 mph , 24 km/h
Temperature: 10°C
Wind Chill: 7°C
Dew Point: 6°C
Humidity: 76%
Barometer: 1025 hPa
Clouds: Partly cloudy
Visibility: 6 miles , 10 km
Cloud details: Few Clouds 3300 ft
Partly cloudy 4800 ft
2018/10/18 16:50 EGPE 181650Z 23013KT 9999 FEW033 SCT048 10/06 Q1025
 
EGPH - Edinburgh
Distance from station: SSW 77mi, 125km
Updated: 18/10/2018 17:50
Partly cloudy
Partly cloudy
 Wind from SW
Wind: SW 6 mph , 9 km/h
Temperature: 11°C
Dew Point: 4°C
Humidity: 62%
Barometer: 1026 hPa
Clouds: Partly cloudy
Visibility: 6 miles , 10 km
Cloud details: Partly cloudy 3900 ft
2018/10/18 16:50 EGPH 181650Z 22005KT 9999 SCT039 11/04 Q1026
EGPC - Wick
Distance from station: NNW 107mi, 172km
Updated: 18/10/2018 17:50
Mostly cloudy
Mostly cloudy
 Wind from SSW
Wind: SSW 7 mph , 11 km/h
Temperature: 10°C
Wind Chill: 8°C
Dew Point: 6°C
Humidity: 76%
Barometer: 1024 hPa
Clouds: Mostly cloudy
Visibility: 6 miles , 10 km
Cloud details: Mostly cloudy 3900 ft
2018/10/18 16:50 EGPC 181650Z 21006KT 9999 BKN039 10/06 Q1024
 
EGPF - Glasgow
Distance from station: SW 107mi, 172km
Updated: 18/10/2018 17:50
Mostly cloudy
Mostly cloudy
 Wind from SW
Wind: SW 7 mph , 11 km/h
Temperature: 9°C
Wind Chill: 7°C
Dew Point: 6°C
Humidity: 82%
Barometer: 1027 hPa
Clouds: Mostly cloudy
Visibility: 6 miles , 10 km
Cloud details: Mostly cloudy 4100 ft
2018/10/18 16:50 EGPF 181650Z AUTO 22006KT 9999 BKN041 09/06 Q1027
EGPK - Prestwick
Distance from station: SW 130mi, 209km
Updated: 18/10/2018 17:50
Partly cloudy
Partly cloudy
 Wind from varies
Wind: varies 3 mph , 6 km/h, Gust: 17 mph , 28 km/h
Temperature: 11°C
Dew Point: 7°C
Humidity: 77%
Barometer: 1027 hPa
Clouds: Partly cloudy
Visibility: 6 miles , 10 km
Cloud details: Partly cloudy 3200 ft
2018/10/18 16:50 EGPK 181650Z VRB03G15KT 9999 SCT032 11/07 Q1027
 
EGPA - Kirkwall, Orkney
Distance from station: N 140mi, 225km
Updated: 18/10/2018 17:50
Overcast
Overcast
 Wind from S
Wind: S 9 mph , 15 km/h
Temperature: 10°C
Wind Chill: 8°C
Dew Point: 7°C
Humidity: 82%
Barometer: 1024 hPa
Clouds: Overcast
Visibility: 6 miles , 10 km
Cloud details: Few Clouds 1200 ft
Overcast 3700 ft
2018/10/18 16:50 EGPA 181650Z 19008KT 9999 FEW012 OVC037 10/07 Q1024
EGPO - Stornoway, Outer Hebrides
Distance from station: WNW 169mi, 273km
Updated: 18/10/2018 17:50
Mostly cloudy
Mostly cloudy
 Wind from SSW
Wind: SSW 20 mph , 31 km/h
Temperature: 10°C
Wind Chill: 7°C
Dew Point: 7°C
Humidity: 82%
Barometer: 1022 hPa
Clouds: Mostly cloudy
Visibility: 6 miles , 10 km
Cloud details: Few Clouds 1500 ft
Partly cloudy 3400 ft
Mostly cloudy 4200 ft
2018/10/18 16:50 EGPO 181650Z 21017KT 9999 FEW015 SCT034 BKN042 10/07 Q1022
 
EGPI - Islay, Inner Hebrides
Distance from station: WSW 172mi, 276km
Updated: 18/10/2018 17:50
Few Clouds
Few Clouds
 Wind from S
Wind: S 6 mph , 9 km/h
Temperature: 9°C
Wind Chill: 7°C
Dew Point: 5°C
Humidity: 76%
Barometer: 1025 hPa
Clouds: Few Clouds
Visibility: 6 miles , 10 km
Cloud details: Few Clouds 3800 ft
2018/10/18 16:50 EGPI 181650Z 17005KT 9999 FEW038 09/05 Q1025
EGPU - Tiree, Inner Hebrides
Distance from station: W 172mi, 276km
Updated: 18/10/2018 17:50
Mostly cloudy
Mostly cloudy
 Wind from SSW
Wind: SSW 15 mph , 24 km/h
Temperature: 10°C
Wind Chill: 7°C
Dew Point: 6°C
Humidity: 76%
Barometer: 1024 hPa
Clouds: Mostly cloudy
Visibility: 6 miles , 10 km
Cloud details: Few Clouds 2400 ft
Mostly cloudy 3900 ft
2018/10/18 16:50 EGPU 181650Z 20013KT 9999 FEW024 BKN039 10/06 Q1024
 
EGPB - Sumburgh, Shetland
Distance from station: NNE 208mi, 332km
Updated: 18/10/2018 17:50
Mostly cloudy
Mostly cloudy
 Wind from SW
Wind: SW 18 mph , 30 km/h
Temperature: 11°C
Dew Point: 7°C
Humidity: 77%
Barometer: 1023 hPa
Clouds: Mostly cloudy
Visibility: 6 miles , 10 km
Cloud details: Few Clouds 1900 ft
Mostly cloudy 4200 ft
2018/10/18 16:50 EGPB 181650Z 23016KT 9999 FEW019 BKN042 11/07 Q1023
EGPM - Scatsa, Shetland
Distance from station: NNE 245mi, 392km
Updated: 18/10/2018 17:50
Partly cloudy
Partly cloudy
 Wind from SW
Wind: SW 13 mph , 20 km/h
Temperature: 10°C
Wind Chill: 7°C
Dew Point: 8°C
Humidity: 88%
Barometer: 1022 hPa
Clouds: Partly cloudy
Visibility: 6 miles , 10 km
Cloud details: Few Clouds 2100 ft
Partly cloudy 3700 ft
2018/10/18 16:50 EGPM 181650Z 22011KT 9999 FEW021 SCT037 10/08 Q1022 NOSIG
-->